Time;durP1;ratioP1;P1;durP2;ratioP2;P2;SDS_P1;SDS_P2;PMS_P1;PMS_P2;Temp;Humidity;BMP_temperature;BMP_pressure;BME280_temperature;BME280_humidity;BME280_pressure;Samples;Min_cycle;Max_cycle;Signal;HPM_P1;HPM_P2
2023/03/10 00:00:43;;;;;;;;;;;;;;;;;;4406145;32;19937;-74
2023/03/10 00:03:08;;;;;;;;;;;;;;;;;;4408354;32;19971;-74
2023/03/10 00:05:33;;;;;;;;;;;;;;;;;;4406795;32;19978;-74
2023/03/10 00:07:58;;;;;;;;;;;;;;;;;;4406695;32;19938;-75
2023/03/10 00:10:23;;;;;;;;;;;;;;;;;;4405862;32;19942;-74
2023/03/10 00:12:48;;;;;;;;;;;;;;;;;;4406072;32;20347;-74
2023/03/10 00:15:13;;;;;;;;;;;;;;;;;;4408281;32;20346;-74
2023/03/10 00:17:38;;;;;;;;;;;;;;;;;;4410774;32;20299;-74
2023/03/10 00:20:10;;;;;;;;;;;;;;;;;;4411386;32;19968;-73
2023/03/10 00:22:35;;;;;;;;;;;;;;;;;;4410641;32;19980;-74
2023/03/10 00:25:00;;;;;;;;;;;;;;;;;;4410873;32;19987;-73
2023/03/10 00:27:25;;;;;;;;;;;;;;;;;;4421248;32;19941;-73
2023/03/10 00:29:50;;;;;;;;;;;;;;;;;;4409752;32;20400;-74
2023/03/10 00:32:15;;;;;;;;;;;;;;;;;;4410128;32;19937;-75
2023/03/10 00:34:40;;;;;;;;;;;;;;;;;;4410446;32;19973;-75
2023/03/10 00:37:05;;;;;;;;;;;;;;;;;;4410347;32;19956;-75
2023/03/10 00:39:30;;;;;;;;;;;;;;;;;;4412088;32;19980;-74
2023/03/10 00:41:56;;;;;;;;;;;;;;;;;;4411030;32;19953;-74
2023/03/10 00:44:21;;;;;;;;;;;;;;;;;;4423435;32;19972;-74
2023/03/10 00:46:46;;;;;;;;;;;;;;;;;;4411854;32;19934;-74
2023/03/10 00:49:11;;;;;;;;;;;;;;;;;;4411435;32;19949;-73
2023/03/10 00:51:36;;;;;;;;;;;;;;;;;;4411223;32;19964;-73
2023/03/10 00:54:01;;;;;;;;;;;;;;;;;;4411726;32;19934;-74
2023/03/10 00:56:26;;;;;;;;;;;;;;;;;;4415585;32;19941;-73
2023/03/10 00:58:51;;;;;;;;;;;;;;;;;;4416648;32;19937;-74
2023/03/10 01:01:16;;;;;;;;;;;;;;;;;;4410719;32;19945;-73
2023/03/10 01:03:42;;;;;;;;;;;;;;;;;;4409908;32;19992;-73
2023/03/10 01:06:07;;;;;;;;;;;;;;;;;;4409509;32;20319;-75
2023/03/10 01:08:32;;;;;;;;;;;;;;;;;;4410809;32;19974;-74
2023/03/10 01:10:57;;;;;;;;;;;;;;;;;;4410388;32;19938;-74
2023/03/10 01:13:22;;;;;;;;;;;;;;;;;;4415876;32;19933;-74
2023/03/10 01:15:49;;;;;;;;;;;;;;;;;;4411057;32;19951;-74
2023/03/10 01:18:14;;;;;;;;;;;;;;;;;;4413500;32;19937;-75
2023/03/10 01:20:42;;;;;;;;;;;;;;;;;;4423169;32;20002;-75
2023/03/10 01:23:07;;;;;;;;;;;;;;;;;;4410037;32;19956;-75
2023/03/10 01:25:32;;;;;;;;;;;;;;;;;;4409215;32;19949;-75
2023/03/10 01:27:58;;;;;;;;;;;;;;;;;;4420741;32;19949;-74
2023/03/10 01:30:23;;;;;;;;;;;;;;;;;;4408998;32;19971;-74
2023/03/10 01:32:48;;;;;;;;;;;;;;;;;;4410446;32;20020;-75
2023/03/10 01:35:13;;;;;;;;;;;;;;;;;;4421648;32;19933;-73
2023/03/10 01:37:38;;;;;;;;;;;;;;;;;;4410236;32;20338;-73
2023/03/10 01:40:04;;;;;;;;;;;;;;;;;;4407903;32;19933;-75
2023/03/10 01:42:29;;;;;;;;;;;;;;;;;;4410466;32;19989;-74
2023/03/10 01:44:54;;;;;;;;;;;;;;;;;;4419695;32;19956;-74
2023/03/10 01:47:19;;;;;;;;;;;;;;;;;;4407422;32;19937;-74
2023/03/10 01:49:44;;;;;;;;;;;;;;;;;;4419618;32;19989;-74
2023/03/10 01:52:09;;;;;;;;;;;;;;;;;;4419024;32;20331;-74
2023/03/10 01:54:34;;;;;;;;;;;;;;;;;;4408928;32;20224;-74
2023/03/10 01:56:59;;;;;;;;;;;;;;;;;;4409933;32;20323;-74
2023/03/10 01:59:25;;;;;;;;;;;;;;;;;;4407094;32;19992;-73
2023/03/10 02:01:50;;;;;;;;;;;;;;;;;;4408879;32;19977;-74
2023/03/10 02:04:15;;;;;;;;;;;;;;;;;;4418271;32;20271;-74
2023/03/10 02:06:40;;;;;;;;;;;;;;;;;;4407490;32;20452;-74
2023/03/10 02:09:05;;;;;;;;;;;;;;;;;;4418344;32;19952;-74
2023/03/10 02:11:31;;;;;;;;;;;;;;;;;;4406737;32;20367;-74
2023/03/10 02:13:56;;;;;;;;;;;;;;;;;;4426754;32;19929;-76
2023/03/10 02:16:21;;;;;;;;;;;;;;;;;;4422039;32;19933;-75
2023/03/10 02:18:46;;;;;;;;;;;;;;;;;;4422972;32;19947;-76
2023/03/10 02:21:12;;;;;;;;;;;;;;;;;;4425990;32;19952;-73
2023/03/10 02:23:37;;;;;;;;;;;;;;;;;;4424335;32;19938;-74
2023/03/10 02:26:02;;;;;;;;;;;;;;;;;;4423486;32;19971;-74
2023/03/10 02:28:27;;;;;;;;;;;;;;;;;;4422935;32;19940;-74
2023/03/10 02:30:52;;;;;;;;;;;;;;;;;;4422127;32;19941;-74
2023/03/10 02:33:17;;;;;;;;;;;;;;;;;;4423091;32;19933;-73
2023/03/10 02:35:42;;;;;;;;;;;;;;;;;;4421609;32;19933;-73
2023/03/10 02:38:07;;;;;;;;;;;;;;;;;;4421809;32;19941;-73
2023/03/10 02:40:32;;;;;;;;;;;;;;;;;;4421673;32;19933;-74
2023/03/10 02:42:58;;;;;;;;;;;;;;;;;;4418896;32;19938;-74
2023/03/10 02:45:23;;;;;;;;;;;;;;;;;;4406697;32;19999;-74
2023/03/10 02:47:48;;;;;;;;;;;;;;;;;;4407684;32;19964;-73
2023/03/10 02:50:13;;;;;;;;;;;;;;;;;;4406024;32;19937;-74
2023/03/10 02:52:38;;;;;;;;;;;;;;;;;;4417445;32;19968;-73
2023/03/10 02:55:03;;;;;;;;;;;;;;;;;;4417546;32;19957;-74
2023/03/10 02:57:28;;;;;;;;;;;;;;;;;;4407218;32;19934;-74
2023/03/10 02:59:53;;;;;;;;;;;;;;;;;;4406735;32;20224;-75
2023/03/10 03:02:18;;;;;;;;;;;;;;;;;;4420739;32;19996;-74
2023/03/10 03:04:43;;;;;;;;;;;;;;;;;;4421590;32;19945;-74
2023/03/10 03:07:09;;;;;;;;;;;;;;;;;;4422661;32;19996;-75
2023/03/10 03:09:34;;;;;;;;;;;;;;;;;;4422495;32;19936;-74
2023/03/10 03:12:00;;;;;;;;;;;;;;;;;;4421306;32;19945;-74
2023/03/10 03:14:25;;;;;;;;;;;;;;;;;;4421718;32;19937;-75
2023/03/10 03:16:50;;;;;;;;;;;;;;;;;;4420977;32;19966;-74
2023/03/10 03:19:15;;;;;;;;;;;;;;;;;;4423029;32;19937;-74
2023/03/10 03:21:40;;;;;;;;;;;;;;;;;;4421706;32;19973;-74
2023/03/10 03:24:05;;;;;;;;;;;;;;;;;;4422492;32;19966;-74
2023/03/10 03:26:30;;;;;;;;;;;;;;;;;;4420758;32;19976;-74
2023/03/10 03:28:56;;;;;;;;;;;;;;;;;;4432391;32;20345;-74
2023/03/10 03:31:21;;;;;;;;;;;;;;;;;;4433297;32;19953;-74
2023/03/10 03:33:46;;;;;;;;;;;;;;;;;;4411162;32;19941;-74
2023/03/10 03:36:11;;;;;;;;;;;;;;;;;;4411591;32;19985;-75
2023/03/10 03:38:36;;;;;;;;;;;;;;;;;;4406302;32;19938;-75
2023/03/10 03:41:01;;;;;;;;;;;;;;;;;;4418948;32;20040;-74
2023/03/10 03:43:28;;;;;;;;;;;;;;;;;;4418850;32;19937;-74
2023/03/10 03:45:53;;;;;;;;;;;;;;;;;;4417355;32;20325;-74
2023/03/10 03:48:18;;;;;;;;;;;;;;;;;;4407240;32;20311;-74
2023/03/10 03:50:43;;;;;;;;;;;;;;;;;;4410887;32;19967;-74
2023/03/10 03:53:08;;;;;;;;;;;;;;;;;;4412782;32;19938;-74
2023/03/10 03:55:33;;;;;;;;;;;;;;;;;;4410170;32;19934;-71
2023/03/10 03:57:58;;;;;;;;;;;;;;;;;;4408456;32;19949;-74
2023/03/10 04:00:24;;;;;;;;;;;;;;;;;;4409104;32;19941;-74
2023/03/10 04:02:49;;;;;;;;;;;;;;;;;;4408280;32;19929;-75
2023/03/10 04:05:15;;;;;;;;;;;;;;;;;;4408308;32;20255;-74
2023/03/10 04:07:40;;;;;;;;;;;;;;;;;;4408754;32;19976;-75
2023/03/10 04:10:05;;;;;;;;;;;;;;;;;;4409257;32;19966;-73
2023/03/10 04:12:31;;;;;;;;;;;;;;;;;;4409683;32;19976;-73
2023/03/10 04:14:56;;;;;;;;;;;;;;;;;;4408861;32;19934;-74
2023/03/10 04:17:21;;;;;;;;;;;;;;;;;;4408541;32;19985;-74
2023/03/10 04:19:46;;;;;;;;;;;;;;;;;;4408656;32;19952;-75
2023/03/10 04:22:11;;;;;;;;;;;;;;;;;;4408066;32;20051;-73
2023/03/10 04:24:36;;;;;;;;;;;;;;;;;;4409830;32;20255;-74
2023/03/10 04:27:01;;;;;;;;;;;;;;;;;;4408806;32;19985;-74
2023/03/10 04:29:26;;;;;;;;;;;;;;;;;;4408370;32;19964;-74
2023/03/10 04:31:51;;;;;;;;;;;;;;;;;;4409396;32;19933;-75
2023/03/10 04:34:17;;;;;;;;;;;;;;;;;;4409325;32;20288;-74
2023/03/10 04:36:42;;;;;;;;;;;;;;;;;;4409986;32;19929;-74
2023/03/10 04:39:08;;;;;;;;;;;;;;;;;;4408443;32;20338;-73
2023/03/10 04:41:33;;;;;;;;;;;;;;;;;;4420647;32;19948;-73
2023/03/10 04:43:58;;;;;;;;;;;;;;;;;;4424809;32;19989;-73
2023/03/10 04:46:31;;;;;;;;;;;;;;;;;;4423577;32;19978;-74
2023/03/10 04:48:56;;;;;;;;;;;;;;;;;;4425310;32;19947;-75
2023/03/10 04:51:21;;;;;;;;;;;;;;;;;;4434737;32;19937;-74
2023/03/10 04:53:46;;;;;;;;;;;;;;;;;;4423173;32;19948;-74
2023/03/10 04:56:11;;;;;;;;;;;;;;;;;;4424242;32;19995;-75
2023/03/10 04:58:36;;;;;;;;;;;;;;;;;;4422844;32;19951;-74
2023/03/10 05:01:01;;;;;;;;;;;;;;;;;;4434336;32;20274;-73
2023/03/10 05:03:26;;;;;;;;;;;;;;;;;;4423823;32;20315;-73
2023/03/10 05:05:52;;;;;;;;;;;;;;;;;;4424457;32;19933;-74
2023/03/10 05:08:18;;;;;;;;;;;;;;;;;;4423535;32;19948;-73
2023/03/10 05:10:43;;;;;;;;;;;;;;;;;;4435983;32;19960;-74
2023/03/10 05:13:11;;;;;;;;;;;;;;;;;;4434427;32;19944;-74
2023/03/10 05:15:36;;;;;;;;;;;;;;;;;;4423400;32;20084;-74
2023/03/10 05:18:01;;;;;;;;;;;;;;;;;;4423737;32;19937;-74
2023/03/10 05:20:27;;;;;;;;;;;;;;;;;;4425981;32;20296;-73
2023/03/10 05:22:52;;;;;;;;;;;;;;;;;;4424531;32;19980;-74
2023/03/10 05:25:17;;;;;;;;;;;;;;;;;;4424126;32;19937;-74
2023/03/10 05:27:42;;;;;;;;;;;;;;;;;;4433857;32;19940;-73
2023/03/10 05:30:07;;;;;;;;;;;;;;;;;;4434358;32;19936;-74
2023/03/10 05:32:32;;;;;;;;;;;;;;;;;;4433888;32;19948;-74
2023/03/10 05:34:57;;;;;;;;;;;;;;;;;;4435755;32;19933;-74
2023/03/10 05:37:23;;;;;;;;;;;;;;;;;;4423741;32;20336;-74
2023/03/10 05:39:48;;;;;;;;;;;;;;;;;;4423747;32;19984;-74
2023/03/10 05:42:13;;;;;;;;;;;;;;;;;;4423924;32;19933;-74
2023/03/10 05:44:38;;;;;;;;;;;;;;;;;;4422939;32;19933;-73
2023/03/10 05:47:04;;;;;;;;;;;;;;;;;;4424021;32;19953;-74
2023/03/10 05:49:29;;;;;;;;;;;;;;;;;;4434053;32;19937;-74
2023/03/10 05:51:54;;;;;;;;;;;;;;;;;;4433621;32;20232;-74
2023/03/10 05:54:19;;;;;;;;;;;;;;;;;;4423845;32;19944;-74
2023/03/10 05:56:44;;;;;;;;;;;;;;;;;;4421925;32;19948;-73
2023/03/10 05:59:10;;;;;;;;;;;;;;;;;;4422451;32;20306;-73
2023/03/10 06:01:36;;;;;;;;;;;;;;;;;;4423429;32;19999;-74
2023/03/10 06:04:01;;;;;;;;;;;;;;;;;;4422008;32;20352;-74
2023/03/10 06:06:26;;;;;;;;;;;;;;;;;;4421579;32;19976;-74
2023/03/10 06:08:51;;;;;;;;;;;;;;;;;;4433849;32;20018;-73
2023/03/10 06:11:17;;;;;;;;;;;;;;;;;;4422433;32;19970;-74
2023/03/10 06:13:42;;;;;;;;;;;;;;;;;;4422011;32;19952;-74
2023/03/10 06:16:07;;;;;;;;;;;;;;;;;;4435071;32;19970;-74
2023/03/10 06:18:32;;;;;;;;;;;;;;;;;;4421885;32;19993;-74
2023/03/10 06:20:57;;;;;;;;;;;;;;;;;;4423428;32;20006;-73
2023/03/10 06:23:22;;;;;;;;;;;;;;;;;;4422451;32;20487;-73
2023/03/10 06:25:47;;;;;;;;;;;;;;;;;;4422435;32;19952;-73
2023/03/10 06:28:12;;;;;;;;;;;;;;;;;;4423332;32;19945;-74
2023/03/10 06:30:37;;;;;;;;;;;;;;;;;;4422576;32;19937;-74
2023/03/10 06:33:03;;;;;;;;;;;;;;;;;;4410718;32;20208;-74
2023/03/10 06:35:28;;;;;;;;;;;;;;;;;;4406641;32;19996;-74
2023/03/10 06:37:53;;;;;;;;;;;;;;;;;;4407698;32;19929;-74
2023/03/10 06:40:18;;;;;;;;;;;;;;;;;;4406439;32;20212;-74
2023/03/10 06:42:43;;;;;;;;;;;;;;;;;;4406579;32;19937;-74
2023/03/10 06:45:08;;;;;;;;;;;;;;;;;;4406656;32;19933;-74
2023/03/10 06:47:33;;;;;;;;;;;;;;;;;;4424241;32;19999;-72
2023/03/10 06:49:58;;;;;;;;;;;;;;;;;;4423360;32;19941;-74
2023/03/10 06:52:23;;;;;;;;;;;;;;;;;;4421601;32;20290;-74
2023/03/10 06:54:49;;;;;;;;;;;;;;;;;;4422688;32;19951;-74
2023/03/10 06:57:14;;;;;;;;;;;;;;;;;;4421136;32;19986;-74
2023/03/10 06:59:39;;;;;;;;;;;;;;;;;;4420862;32;19943;-73
2023/03/10 07:02:04;;;;;;;;;;;;;;;;;;4419914;32;19941;-73
2023/03/10 07:04:29;;;;;;;;;;;;;;;;;;4421841;32;20295;-73
2023/03/10 07:06:54;;;;;;;;;;;;;;;;;;4420600;32;19933;-74
2023/03/10 07:09:19;;;;;;;;;;;;;;;;;;4421430;32;19941;-73
2023/03/10 07:11:44;;;;;;;;;;;;;;;;;;4420633;32;19948;-74
2023/03/10 07:14:09;;;;;;;;;;;;;;;;;;4419692;32;20205;-74
2023/03/10 07:16:34;;;;;;;;;;;;;;;;;;4420911;32;19937;-74
2023/03/10 07:19:00;;;;;;;;;;;;;;;;;;4420060;32;19933;-75
2023/03/10 07:21:25;;;;;;;;;;;;;;;;;;4420868;32;19941;-73
2023/03/10 07:23:50;;;;;;;;;;;;;;;;;;4421474;32;19933;-73
2023/03/10 07:26:17;;;;;;;;;;;;;;;;;;4420909;32;19933;-74
2023/03/10 07:28:42;;;;;;;;;;;;;;;;;;4420525;32;20319;-74
2023/03/10 07:31:07;;;;;;;;;;;;;;;;;;4420521;32;20398;-74
2023/03/10 07:33:32;;;;;;;;;;;;;;;;;;4421588;32;19957;-73
2023/03/10 07:35:57;;;;;;;;;;;;;;;;;;4422135;32;19982;-74
2023/03/10 07:38:22;;;;;;;;;;;;;;;;;;4432504;32;19974;-73
2023/03/10 07:40:47;;;;;;;;;;;;;;;;;;4420424;32;20303;-73
2023/03/10 07:43:13;;;;;;;;;;;;;;;;;;4421830;32;19952;-72
2023/03/10 07:45:38;;;;;;;;;;;;;;;;;;4434126;32;19995;-73
2023/03/10 07:48:03;;;;;;;;;;;;;;;;;;4431981;32;19949;-74
2023/03/10 07:50:28;;;;;;;;;;;;;;;;;;4412681;32;19948;-74
2023/03/10 07:52:54;;;;;;;;;;;;;;;;;;4416085;32;19933;-74
2023/03/10 07:55:19;;;;;;;;;;;;;;;;;;4432046;32;19943;-74
2023/03/10 07:57:44;;;;;;;;;;;;;;;;;;4422424;32;19937;-74
2023/03/10 08:00:09;;;;;;;;;;;;;;;;;;4422011;32;19938;-74
2023/03/10 08:02:34;;;;;;;;;;;;;;;;;;4420310;32;19959;-74
2023/03/10 08:04:59;;;;;;;;;;;;;;;;;;4420960;32;19957;-74
2023/03/10 08:07:26;;;;;;;;;;;;;;;;;;4420425;32;19952;-73
2023/03/10 08:09:51;;;;;;;;;;;;;;;;;;4421311;32;19987;-74
2023/03/10 08:12:16;;;;;;;;;;;;;;;;;;4421840;32;19941;-72
2023/03/10 08:14:41;;;;;;;;;;;;;;;;;;4424327;32;20319;-73
2023/03/10 08:17:06;;;;;;;;;;;;;;;;;;4425409;32;19970;-73
2023/03/10 08:19:32;;;;;;;;;;;;;;;;;;4422850;32;19988;-74
2023/03/10 08:21:57;;;;;;;;;;;;;;;;;;4421898;32;19941;-74
2023/03/10 08:24:22;;;;;;;;;;;;;;;;;;4420341;32;19994;-75
2023/03/10 08:26:47;;;;;;;;;;;;;;;;;;4419841;32;19952;-74
2023/03/10 08:29:12;;;;;;;;;;;;;;;;;;4421645;32;19941;-75
2023/03/10 08:31:37;;;;;;;;;;;;;;;;;;4421827;32;19953;-74
2023/03/10 08:34:02;;;;;;;;;;;;;;;;;;4420347;32;19941;-74
2023/03/10 08:36:27;;;;;;;;;;;;;;;;;;4422533;32;19933;-73
2023/03/10 08:38:52;;;;;;;;;;;;;;;;;;4435319;32;20301;-74
2023/03/10 08:41:17;;;;;;;;;;;;;;;;;;4423033;32;20318;-74
2023/03/10 08:43:43;;;;;;;;;;;;;;;;;;4434668;32;19951;-74
2023/03/10 08:46:08;;;;;;;;;;;;;;;;;;4422679;32;19929;-74
2023/03/10 08:48:33;;;;;;;;;;;;;;;;;;4423252;32;19937;-74
2023/03/10 08:50:58;;;;;;;;;;;;;;;;;;4425046;32;19942;-74
2023/03/10 08:53:23;;;;;;;;;;;;;;;;;;4407799;32;20333;-75
2023/03/10 08:55:49;;;;;;;;;;;;;;;;;;4408711;32;19942;-74
2023/03/10 08:58:14;;;;;;;;;;;;;;;;;;4407741;32;19973;-75
2023/03/10 09:00:39;;;;;;;;;;;;;;;;;;4409949;32;19937;-73
2023/03/10 09:03:04;;;;;;;;;;;;;;;;;;4421794;32;19968;-74
2023/03/10 09:05:29;;;;;;;;;;;;;;;;;;4408834;32;19985;-74
2023/03/10 09:07:54;;;;;;;;;;;;;;;;;;4407985;32;19975;-74
2023/03/10 09:10:19;;;;;;;;;;;;;;;;;;4407500;32;19997;-72
2023/03/10 09:12:45;;;;;;;;;;;;;;;;;;4407113;32;19937;-73
2023/03/10 09:15:10;;;;;;;;;;;;;;;;;;4407689;32;19942;-74
2023/03/10 09:17:35;;;;;;;;;;;;;;;;;;4407527;32;20304;-73
2023/03/10 09:20:00;;;;;;;;;;;;;;;;;;4424537;32;19933;-74
2023/03/10 09:22:25;;;;;;;;;;;;;;;;;;4422142;32;20307;-74
2023/03/10 09:24:50;;;;;;;;;;;;;;;;;;4422487;32;19933;-73
2023/03/10 09:27:15;;;;;;;;;;;;;;;;;;4434540;32;19967;-74
2023/03/10 09:29:40;;;;;;;;;;;;;;;;;;4422564;32;20272;-73
2023/03/10 09:32:05;;;;;;;;;;;;;;;;;;4424240;32;20005;-73
2023/03/10 09:34:30;;;;;;;;;;;;;;;;;;4423742;32;19933;-73
2023/03/10 09:36:55;;;;;;;;;;;;;;;;;;4423057;32;19937;-74
2023/03/10 09:39:21;;;;;;;;;;;;;;;;;;4423961;32;20070;-74
2023/03/10 09:41:46;;;;;;;;;;;;;;;;;;4423148;32;20377;-74
2023/03/10 09:44:11;;;;;;;;;;;;;;;;;;4425552;32;19964;-74
2023/03/10 09:46:36;;;;;;;;;;;;;;;;;;4423952;32;19937;-74
2023/03/10 09:49:02;;;;;;;;;;;;;;;;;;4423082;32;20009;-74
2023/03/10 09:51:27;;;;;;;;;;;;;;;;;;4423240;32;20355;-73
2023/03/10 09:53:52;;;;;;;;;;;;;;;;;;4423243;32;19971;-74
2023/03/10 09:56:17;;;;;;;;;;;;;;;;;;4422282;32;19951;-74
2023/03/10 09:58:43;;;;;;;;;;;;;;;;;;4434492;32;19937;-73
2023/03/10 10:01:08;;;;;;;;;;;;;;;;;;4422563;32;20011;-73
2023/03/10 10:03:33;;;;;;;;;;;;;;;;;;4433298;32;19990;-73
2023/03/10 10:05:58;;;;;;;;;;;;;;;;;;4433514;32;20373;-75
2023/03/10 10:08:23;;;;;;;;;;;;;;;;;;4429635;32;19937;-73
2023/03/10 10:10:48;;;;;;;;;;;;;;;;;;4421802;32;20318;-75
2023/03/10 10:13:13;;;;;;;;;;;;;;;;;;4422720;32;19933;-74
2023/03/10 10:15:39;;;;;;;;;;;;;;;;;;4433258;32;19937;-73
2023/03/10 10:18:04;;;;;;;;;;;;;;;;;;4435119;32;19952;-73
2023/03/10 10:20:29;;;;;;;;;;;;;;;;;;4433162;32;19968;-74
2023/03/10 10:22:54;;;;;;;;;;;;;;;;;;4422709;32;19937;-74
2023/03/10 10:25:19;;;;;;;;;;;;;;;;;;4422296;32;19933;-74
2023/03/10 10:27:44;;;;;;;;;;;;;;;;;;4432901;32;19940;-74
2023/03/10 10:30:09;;;;;;;;;;;;;;;;;;4422695;32;19941;-75
2023/03/10 10:32:34;;;;;;;;;;;;;;;;;;4421657;32;19975;-75
2023/03/10 10:35:00;;;;;;;;;;;;;;;;;;4434666;32;19973;-74
2023/03/10 10:37:25;;;;;;;;;;;;;;;;;;4421392;32;19937;-74
2023/03/10 10:39:50;;;;;;;;;;;;;;;;;;4421518;32;19985;-75
2023/03/10 10:42:15;;;;;;;;;;;;;;;;;;4423223;32;19941;-74
2023/03/10 10:44:41;;;;;;;;;;;;;;;;;;4421974;32;20350;-73
2023/03/10 10:47:06;;;;;;;;;;;;;;;;;;4422501;32;19947;-73
2023/03/10 10:49:32;;;;;;;;;;;;;;;;;;4432159;32;20015;-74
2023/03/10 10:51:58;;;;;;;;;;;;;;;;;;4432476;32;19933;-75
2023/03/10 10:54:27;;;;;;;;;;;;;;;;;;4432705;32;19947;-74
2023/03/10 10:56:52;;;;;;;;;;;;;;;;;;4420720;32;19951;-75
2023/03/10 10:59:17;;;;;;;;;;;;;;;;;;4421399;32;19981;-74
2023/03/10 11:01:42;;;;;;;;;;;;;;;;;;4422184;32;20307;-74
2023/03/10 11:04:07;;;;;;;;;;;;;;;;;;4421325;32;19933;-74
2023/03/10 11:06:36;;;;;;;;;;;;;;;;;;4421225;32;19951;-74
2023/03/10 11:09:01;;;;;;;;;;;;;;;;;;4420880;32;19981;-74
2023/03/10 11:11:28;;;;;;;;;;;;;;;;;;4421365;32;19949;-74
2023/03/10 11:13:54;;;;;;;;;;;;;;;;;;4426222;32;20299;-73
2023/03/10 11:16:20;;;;;;;;;;;;;;;;;;4421661;32;19947;-75
2023/03/10 11:18:46;;;;;;;;;;;;;;;;;;4420193;32;19959;-74
2023/03/10 11:21:11;;;;;;;;;;;;;;;;;;4420664;32;20313;-74
2023/03/10 11:23:36;;;;;;;;;;;;;;;;;;4420683;32;19930;-74
2023/03/10 11:26:01;;;;;;;;;;;;;;;;;;4420786;32;20009;-74
2023/03/10 11:28:26;;;;;;;;;;;;;;;;;;4421023;32;20023;-73
2023/03/10 11:30:52;;;;;;;;;;;;;;;;;;4420567;32;19981;-74
2023/03/10 11:33:17;;;;;;;;;;;;;;;;;;4420789;32;20308;-73
2023/03/10 11:35:44;;;;;;;;;;;;;;;;;;4420216;32;19992;-74
2023/03/10 11:38:09;;;;;;;;;;;;;;;;;;4421340;32;20366;-74
2023/03/10 11:40:34;;;;;;;;;;;;;;;;;;4420417;32;20341;-74
2023/03/10 11:42:59;;;;;;;;;;;;;;;;;;4420830;32;19933;-74
2023/03/10 11:45:24;;;;;;;;;;;;;;;;;;4420783;32;20345;-72
2023/03/10 11:47:49;;;;;;;;;;;;;;;;;;4422341;32;19945;-73
2023/03/10 11:50:15;;;;;;;;;;;;;;;;;;4421254;32;19970;-74
2023/03/10 11:52:40;;;;;;;;;;;;;;;;;;4421031;32;19976;-74
2023/03/10 11:55:05;;;;;;;;;;;;;;;;;;4420105;32;19941;-74
2023/03/10 11:57:30;;;;;;;;;;;;;;;;;;4420249;32;20278;-74
2023/03/10 11:59:55;;;;;;;;;;;;;;;;;;4408448;32;19929;-73
2023/03/10 12:02:20;;;;;;;;;;;;;;;;;;4405976;32;19989;-73
2023/03/10 12:04:45;;;;;;;;;;;;;;;;;;4419432;32;19967;-74
2023/03/10 12:07:10;;;;;;;;;;;;;;;;;;4419164;32;19942;-73
2023/03/10 12:09:35;;;;;;;;;;;;;;;;;;4419531;32;19941;-74
2023/03/10 12:12:00;;;;;;;;;;;;;;;;;;4423827;32;19972;-74
2023/03/10 12:14:25;;;;;;;;;;;;;;;;;;4424115;32;19948;-73
2023/03/10 12:16:51;;;;;;;;;;;;;;;;;;4422871;32;20406;-74
2023/03/10 12:19:16;;;;;;;;;;;;;;;;;;4423551;32;19972;-74
2023/03/10 12:21:41;;;;;;;;;;;;;;;;;;4423314;32;19969;-74
2023/03/10 12:24:06;;;;;;;;;;;;;;;;;;4423115;32;19974;-74
2023/03/10 12:26:31;;;;;;;;;;;;;;;;;;4424147;32;19991;-74
2023/03/10 12:28:56;;;;;;;;;;;;;;;;;;4422926;32;19952;-74
2023/03/10 12:31:21;;;;;;;;;;;;;;;;;;4423101;32;20275;-74
2023/03/10 12:33:46;;;;;;;;;;;;;;;;;;4421881;32;19951;-74
2023/03/10 12:36:13;;;;;;;;;;;;;;;;;;4422541;32;19937;-74
2023/03/10 12:38:38;;;;;;;;;;;;;;;;;;4423840;32;20295;-74
2023/03/10 12:41:03;;;;;;;;;;;;;;;;;;4423478;32;20289;-74
2023/03/10 12:43:29;;;;;;;;;;;;;;;;;;4426028;32;19933;-73
2023/03/10 12:45:54;;;;;;;;;;;;;;;;;;4423899;32;19952;-74
2023/03/10 12:48:19;;;;;;;;;;;;;;;;;;4426376;32;19937;-74
2023/03/10 12:50:44;;;;;;;;;;;;;;;;;;4408991;32;19941;-75
2023/03/10 12:53:09;;;;;;;;;;;;;;;;;;4410124;32;19961;-73
2023/03/10 12:55:34;;;;;;;;;;;;;;;;;;4419549;32;19938;-74
2023/03/10 12:58:00;;;;;;;;;;;;;;;;;;4407885;32;19967;-73
2023/03/10 13:00:25;;;;;;;;;;;;;;;;;;4408221;32;19956;-73
2023/03/10 13:02:50;;;;;;;;;;;;;;;;;;4422025;32;19963;-74
2023/03/10 13:05:15;;;;;;;;;;;;;;;;;;4424114;32;19948;-74
2023/03/10 13:07:40;;;;;;;;;;;;;;;;;;4421783;32;19937;-74
2023/03/10 13:10:05;;;;;;;;;;;;;;;;;;4424042;32;19937;-74
2023/03/10 13:12:30;;;;;;;;;;;;;;;;;;4422259;32;19937;-74
2023/03/10 13:14:55;;;;;;;;;;;;;;;;;;4422786;32;19933;-74
2023/03/10 13:17:20;;;;;;;;;;;;;;;;;;4422409;32;20110;-75
2023/03/10 13:19:46;;;;;;;;;;;;;;;;;;4423773;32;19974;-74
2023/03/10 13:22:11;;;;;;;;;;;;;;;;;;4421318;32;19933;-74
2023/03/10 13:24:37;;;;;;;;;;;;;;;;;;4423018;32;19933;-74
2023/03/10 13:27:03;;;;;;;;;;;;;;;;;;4424221;32;19933;-74
2023/03/10 13:29:28;;;;;;;;;;;;;;;;;;4422373;32;20280;-75
2023/03/10 13:31:53;;;;;;;;;;;;;;;;;;4421211;32;19945;-75
2023/03/10 13:34:19;;;;;;;;;;;;;;;;;;4420930;32;19992;-76
2023/03/10 13:36:44;;;;;;;;;;;;;;;;;;4422405;32;19945;-75
2023/03/10 13:39:09;;;;;;;;;;;;;;;;;;4422074;32;19952;-75
2023/03/10 13:41:36;;;;;;;;;;;;;;;;;;4421558;32;19937;-76
2023/03/10 13:44:01;;;;;;;;;;;;;;;;;;4422291;32;20011;-76
2023/03/10 13:46:26;;;;;;;;;;;;;;;;;;4423292;32;20258;-75
2023/03/10 13:48:51;;;;;;;;;;;;;;;;;;4421156;32;19982;-75
2023/03/10 13:51:17;;;;;;;;;;;;;;;;;;4424056;32;19971;-76
2023/03/10 13:53:42;;;;;;;;;;;;;;;;;;4434916;32;19933;-75
2023/03/10 13:56:07;;;;;;;;;;;;;;;;;;4422081;32;19974;-75
2023/03/10 13:58:32;;;;;;;;;;;;;;;;;;4421643;32;20344;-76
2023/03/10 14:00:59;;;;;;;;;;;;;;;;;;4434727;32;19947;-76
2023/03/10 14:03:24;;;;;;;;;;;;;;;;;;4419118;32;19975;-75
2023/03/10 14:05:49;;;;;;;;;;;;;;;;;;4407228;32;19957;-75
2023/03/10 14:08:15;;;;;;;;;;;;;;;;;;4406376;32;19945;-75
2023/03/10 14:10:40;;;;;;;;;;;;;;;;;;4407601;32;19938;-75
2023/03/10 14:13:05;;;;;;;;;;;;;;;;;;4421113;32;19971;-74
2023/03/10 14:15:37;;;;;;;;;;;;;;;;;;4439410;32;19933;-75
2023/03/10 14:18:02;;;;;;;;;;;;;;;;;;4435229;32;20005;-74
2023/03/10 14:20:27;;;;;;;;;;;;;;;;;;4422102;32;19941;-74
2023/03/10 14:22:52;;;;;;;;;;;;;;;;;;4420313;32;20401;-74
2023/03/10 14:25:17;;;;;;;;;;;;;;;;;;4420802;32;20334;-74
2023/03/10 14:27:42;;;;;;;;;;;;;;;;;;4420074;32;19941;-74
2023/03/10 14:30:07;;;;;;;;;;;;;;;;;;4421610;32;20028;-75
2023/03/10 14:32:32;;;;;;;;;;;;;;;;;;4419863;32;19932;-75
2023/03/10 14:34:57;;;;;;;;;;;;;;;;;;4422726;32;19938;-75
2023/03/10 14:37:22;;;;;;;;;;;;;;;;;;4420347;32;19947;-75
2023/03/10 14:39:48;;;;;;;;;;;;;;;;;;4421451;32;19933;-74
2023/03/10 14:42:13;;;;;;;;;;;;;;;;;;4422322;32;20301;-75
2023/03/10 14:44:38;;;;;;;;;;;;;;;;;;4419962;32;20290;-75
2023/03/10 14:47:03;;;;;;;;;;;;;;;;;;4421900;32;20281;-74
2023/03/10 14:49:28;;;;;;;;;;;;;;;;;;4419911;32;20315;-75
2023/03/10 14:51:53;;;;;;;;;;;;;;;;;;4420459;32;20000;-75
2023/03/10 14:54:18;;;;;;;;;;;;;;;;;;4423892;32;19941;-75
2023/03/10 14:56:44;;;;;;;;;;;;;;;;;;4419701;32;19938;-75
2023/03/10 14:59:09;;;;;;;;;;;;;;;;;;4421920;32;19989;-76
2023/03/10 15:01:34;;;;;;;;;;;;;;;;;;4422305;32;19946;-75
2023/03/10 15:03:59;;;;;;;;;;;;;;;;;;4420995;32;19948;-76
2023/03/10 15:06:24;;;;;;;;;;;;;;;;;;4419858;32;20306;-75
2023/03/10 15:08:49;;;;;;;;;;;;;;;;;;4419531;32;19937;-74
2023/03/10 15:11:15;;;;;;;;;;;;;;;;;;4421559;32;19977;-74
2023/03/10 15:13:40;;;;;;;;;;;;;;;;;;4421750;32;19937;-75
2023/03/10 15:16:05;;;;;;;;;;;;;;;;;;4420884;32;19984;-74
2023/03/10 15:18:31;;;;;;;;;;;;;;;;;;4420434;32;19937;-74
2023/03/10 15:21:00;;;;;;;;;;;;;;;;;;4432214;32;19974;-73
2023/03/10 15:23:26;;;;;;;;;;;;;;;;;;4421299;32;19951;-74
2023/03/10 15:25:51;;;;;;;;;;;;;;;;;;4432925;32;19977;-75
2023/03/10 15:28:17;;;;;;;;;;;;;;;;;;4432250;32;19969;-75
2023/03/10 15:30:42;;;;;;;;;;;;;;;;;;4433573;32;19952;-75
2023/03/10 15:33:09;;;;;;;;;;;;;;;;;;4432267;32;19938;-75
2023/03/10 15:35:34;;;;;;;;;;;;;;;;;;4419188;32;19944;-76
2023/03/10 15:38:05;;;;;;;;;;;;;;;;;;4422403;32;19957;-75
2023/03/10 15:40:31;;;;;;;;;;;;;;;;;;4424521;32;19971;-74
2023/03/10 15:42:56;;;;;;;;;;;;;;;;;;4421039;32;19985;-75
2023/03/10 15:45:21;;;;;;;;;;;;;;;;;;4421466;32;20399;-75
2023/03/10 15:47:46;;;;;;;;;;;;;;;;;;4422099;32;19956;-76
2023/03/10 15:50:12;;;;;;;;;;;;;;;;;;4422100;32;19933;-75
2023/03/10 15:52:38;;;;;;;;;;;;;;;;;;4420873;32;20273;-76
2023/03/10 15:55:03;;;;;;;;;;;;;;;;;;4420761;32;20258;-75
2023/03/10 15:57:28;;;;;;;;;;;;;;;;;;4421503;32;20274;-74
2023/03/10 15:59:53;;;;;;;;;;;;;;;;;;4420573;32;19989;-74
2023/03/10 16:02:19;;;;;;;;;;;;;;;;;;4420497;32;20278;-75
2023/03/10 16:04:44;;;;;;;;;;;;;;;;;;4421881;32;20311;-75
2023/03/10 16:07:09;;;;;;;;;;;;;;;;;;4419371;32;19947;-75
2023/03/10 16:09:34;;;;;;;;;;;;;;;;;;4419725;32;19938;-75
2023/03/10 16:11:59;;;;;;;;;;;;;;;;;;4420866;32;19983;-74
2023/03/10 16:14:25;;;;;;;;;;;;;;;;;;4420191;32;19953;-74
2023/03/10 16:16:50;;;;;;;;;;;;;;;;;;4419072;32;19974;-73
2023/03/10 16:19:15;;;;;;;;;;;;;;;;;;4420785;32;19983;-73
2023/03/10 16:21:40;;;;;;;;;;;;;;;;;;4419784;32;19941;-73
2023/03/10 16:24:05;;;;;;;;;;;;;;;;;;4420891;32;19971;-72
2023/03/10 16:26:30;;;;;;;;;;;;;;;;;;4421008;32;19938;-72
2023/03/10 16:28:56;;;;;;;;;;;;;;;;;;4421005;32;20000;-72
2023/03/10 16:31:21;;;;;;;;;;;;;;;;;;4419247;32;19976;-72